CGMCJ CYXU-CYXU
Flight info
| Callsign | CGMCJ |
|---|---|
| Flight time | 0h 0m |
| Altitude | 1900 |
| Route | CYXU/27 CIRCUITS |
| Aircraft | C152/L-S/L |
Departure
| Time | 2026-05-03 20:15 |
|---|---|
| Airport | London International Airport (CYXU) |
Arrival
| Time | 2026-05-03 20:15 |
|---|---|
| Airport | London International Airport (CYXU) |
| Time | Latitude | Longitude | Altitude | Speed | Heading |
|---|---|---|---|---|---|
| 2026-05-03 20:15 | 43.06034 | -81.11350 | 1842 ft | 61 kts | 233° |
| 2026-05-03 20:15 | 43.05726 | -81.11785 | 1829 ft | 65 kts | 232° |
| 2026-05-03 20:15 | 43.05340 | -81.12105 | 1826 ft | 60 kts | 214° |
| 2026-05-03 20:15 | 43.05031 | -81.12207 | 1703 ft | 44 kts | 217° |
| 2026-05-03 20:16 | 43.04736 | -81.12349 | 1492 ft | 45 kts | 225° |
| 2026-05-03 20:16 | 43.04521 | -81.12574 | 1429 ft | 36 kts | 238° |
| 2026-05-03 20:16 | 43.04376 | -81.12832 | 1372 ft | 32 kts | 251° |
| 2026-05-03 20:16 | 43.04313 | -81.13118 | 1279 ft | 33 kts | 260° |
| 2026-05-03 20:17 | 43.04225 | -81.13459 | 1190 ft | 41 kts | 260° |
| 2026-05-03 20:17 | 43.04160 | -81.13866 | 1041 ft | 46 kts | 262° |
| 2026-05-03 20:17 | 43.04102 | -81.14272 | 951 ft | 41 kts | 263° |
| 2026-05-03 20:17 | 43.04052 | -81.14641 | 903 ft | 33 kts | 263° |
| 2026-05-03 20:18 | 43.04027 | -81.14820 | 899 ft | 14 kts | 260° |
| 2026-05-03 20:18 | 43.04002 | -81.15006 | 901 ft | 26 kts | 258° |
| 2026-05-03 20:18 | 43.03966 | -81.15259 | 904 ft | 25 kts | 258° |
| 2026-05-03 20:18 | 43.03935 | -81.15468 | 901 ft | 25 kts | 258° |
| 2026-05-03 20:19 | 43.03901 | -81.15703 | 901 ft | 21 kts | 259° |
| 2026-05-03 20:19 | 43.03862 | -81.15831 | 900 ft | 12 kts | 212° |
| 2026-05-03 20:19 | 43.03797 | -81.15806 | 898 ft | 8 kts | 137° |
| 2026-05-03 20:19 | 43.03785 | -81.15792 | 898 ft | 0 kts | 138° |
| 2026-05-03 20:22 | 43.03757 | -81.15757 | 898 ft | 17 kts | 138° |
| 2026-05-03 20:22 | 43.03624 | -81.15605 | 898 ft | 31 kts | 139° |
| 2026-05-03 20:23 | 43.03461 | -81.15397 | 901 ft | 29 kts | 139° |
| 2026-05-03 20:23 | 43.03309 | -81.15219 | 901 ft | 28 kts | 136° |
| 2026-05-03 20:23 | 43.03157 | -81.15038 | 897 ft | 31 kts | 140° |
| 2026-05-03 20:23 | 43.02998 | -81.14849 | 894 ft | 30 kts | 140° |
| 2026-05-03 20:24 | 43.02895 | -81.14723 | 897 ft | 15 kts | 135° |
| 2026-05-03 20:24 | 43.02833 | -81.14703 | 897 ft | 7 kts | 221° |
| 2026-05-03 20:24 | 43.02814 | -81.14742 | 898 ft | 5 kts | 244° |
| 2026-05-03 20:24 | 43.02809 | -81.14757 | 898 ft | 0 kts | 250° |